createdAt,value
2023-02-05T00:00:41.938Z,100785.16
2023-02-05T00:02:47.417Z,100788.97
2023-02-05T00:04:53.384Z,100794.16
2023-02-05T00:06:58.708Z,100798.94
2023-02-05T00:09:03.609Z,100803.69
2023-02-05T00:11:10.747Z,100808.44
2023-02-05T00:13:15.651Z,100810.56
2023-02-05T00:15:21.174Z,100811.50
2023-02-05T00:17:28.680Z,100808.44
2023-02-05T00:19:34.273Z,100802.00
2023-02-05T00:21:39.539Z,100800.81
2023-02-05T00:23:45.280Z,100796.03
2023-02-05T00:25:50.180Z,100783.59
2023-02-05T00:27:55.475Z,100785.16
2023-02-05T00:30:00.897Z,100789.31
2023-02-05T00:32:06.508Z,100790.25
2023-02-05T00:34:14.015Z,100794.50
2023-02-05T00:36:20.711Z,100792.66
2023-02-05T00:38:26.026Z,100799.09
2023-02-05T00:40:32.644Z,100783.09
2023-02-05T00:42:37.704Z,100783.44
2023-02-05T00:44:42.702Z,100792.56
2023-02-05T00:46:47.648Z,100797.66
2023-02-05T00:48:52.864Z,100790.44
2023-02-05T00:51:00.370Z,100787.25
2023-02-05T00:53:05.908Z,100778.81
2023-02-05T00:55:12.447Z,100761.78
2023-02-05T00:57:17.748Z,100770.81
2023-02-05T00:59:23.992Z,100767.09
2023-02-05T01:01:29.337Z,100762.78
2023-02-05T01:03:35.272Z,100770.97
2023-02-05T01:05:41.957Z,100767.72
2023-02-05T01:07:49.709Z,100761.25
2023-02-05T01:09:54.689Z,100761.75
2023-02-05T01:12:00.507Z,100764.84
2023-02-05T01:14:05.868Z,100755.91
2023-02-05T01:16:12.009Z,100749.72
2023-02-05T01:18:17.633Z,100742.47
2023-02-05T01:20:23.330Z,100738.13
2023-02-05T01:22:28.852Z,100733.53
2023-02-05T01:24:36.617Z,100730.44
2023-02-05T01:26:41.483Z,100725.34
2023-02-05T01:28:47.603Z,100724.31
2023-02-05T01:30:53.557Z,100723.31
2023-02-05T01:32:58.863Z,100712.03
2023-02-05T01:35:04.100Z,100710.03
2023-02-05T01:37:09.034Z,100708.03
2023-02-05T01:39:14.931Z,100709.47
2023-02-05T01:41:23.304Z,100708.16
2023-02-05T01:43:28.192Z,100724.38
2023-02-05T01:46:03.539Z,100721.31
2023-02-05T01:48:12.443Z,100719.28
2023-02-05T01:50:18.431Z,100714.66
2023-02-05T01:52:23.316Z,100715.56
2023-02-05T01:54:34.113Z,100711.25
2023-02-05T01:56:45.627Z,100706.16
2023-02-05T01:58:56.643Z,100706.16
2023-02-05T02:01:02.976Z,100704.38
2023-02-05T02:03:08.707Z,100701.22
2023-02-05T02:05:18.115Z,100697.13
2023-02-05T02:07:26.515Z,100691.34
2023-02-05T02:09:31.520Z,100685.16
2023-02-05T02:11:42.350Z,100682.63
2023-02-05T02:13:50.964Z,100685.41
2023-02-05T02:15:58.236Z,100678.84
2023-02-05T02:18:18.659Z,100679.84
2023-02-05T02:20:27.167Z,100673.75
2023-02-05T02:22:56.819Z,100674.03
2023-02-05T02:25:41.027Z,100665.00
2023-02-05T02:27:56.638Z,100654.44
2023-02-05T02:30:08.656Z,100650.03
2023-02-05T02:32:23.378Z,100649.56
2023-02-05T02:34:35.958Z,100658.91
2023-02-05T02:36:50.497Z,100667.88
2023-02-05T02:39:04.006Z,100667.56
2023-02-05T02:41:16.148Z,100672.63
2023-02-05T02:43:33.761Z,100665.41
2023-02-05T02:45:48.097Z,100652.19
2023-02-05T02:47:58.806Z,100642.69
2023-02-05T02:50:09.324Z,100646.63
2023-02-05T02:52:18.198Z,100636.06
2023-02-05T02:54:27.234Z,100626.50
2023-02-05T02:56:36.398Z,100630.03
2023-02-05T02:58:48.743Z,100636.66
2023-02-05T03:00:56.736Z,100632.75
2023-02-05T03:03:08.347Z,100633.00
2023-02-05T03:05:20.587Z,100634.72
2023-02-05T03:07:32.281Z,100633.88
2023-02-05T03:09:45.427Z,100617.50
2023-02-05T03:11:51.256Z,100619.97
2023-02-05T03:14:01.118Z,100612.56
2023-02-05T03:16:11.250Z,100615.94
2023-02-05T03:18:18.519Z,100607.63
2023-02-05T03:20:29.991Z,100608.50
2023-02-05T03:22:35.584Z,100610.97
2023-02-05T03:24:42.512Z,100606.97
2023-02-05T03:26:47.732Z,100609.44
2023-02-05T03:29:01.468Z,100608.63
2023-02-05T03:31:13.071Z,100613.56
2023-02-05T03:33:41.495Z,100614.81
2023-02-05T03:35:58.408Z,100605.69
2023-02-05T03:38:36.750Z,100605.41
2023-02-05T03:40:54.038Z,100603.09
2023-02-05T03:43:13.255Z,100599.00
2023-02-05T03:45:51.765Z,100606.53
2023-02-05T03:48:14.154Z,100605.13
2023-02-05T03:50:26.759Z,100600.59
2023-02-05T03:52:36.905Z,100592.13
2023-02-05T03:54:54.284Z,100605.25
2023-02-05T03:57:11.400Z,100606.13
2023-02-05T03:59:19.538Z,100606.06
2023-02-05T04:01:28.442Z,100614.69
2023-02-05T04:03:34.083Z,100620.69
2023-02-05T04:05:39.283Z,100619.97
2023-02-05T04:07:44.188Z,100622.44
2023-02-05T04:09:50.720Z,100627.47
2023-02-05T04:11:55.700Z,100626.34
2023-02-05T04:14:00.884Z,100619.00
2023-02-05T04:16:07.192Z,100615.59
2023-02-05T04:18:14.750Z,100615.59
2023-02-05T04:20:22.299Z,100615.59
2023-02-05T04:22:27.171Z,100610.78
2023-02-05T04:24:32.503Z,100609.94
2023-02-05T04:26:37.480Z,100605.69
2023-02-05T04:28:44.837Z,100610.63
2023-02-05T04:30:50.063Z,100605.84
2023-02-05T04:32:57.727Z,100605.06
2023-02-05T04:35:05.634Z,100608.16
2023-02-05T04:37:10.676Z,100604.00
2023-02-05T04:39:15.569Z,100615.44
2023-02-05T04:41:20.453Z,100602.88
2023-02-05T04:43:25.797Z,100599.06
2023-02-05T04:45:31.415Z,100589.59
2023-02-05T04:47:37.557Z,100585.41
2023-02-05T04:49:43.063Z,100582.94
2023-02-05T04:51:50.497Z,100579.53
2023-02-05T04:53:56.073Z,100579.41
2023-02-05T04:56:09.381Z,100581.78
2023-02-05T04:58:14.574Z,100587.59
2023-02-05T05:00:20.572Z,100578.66
2023-02-05T05:02:25.830Z,100587.59
2023-02-05T05:04:31.447Z,100584.34
2023-02-05T05:06:37.373Z,100581.00
2023-02-05T05:08:45.553Z,100592.41
2023-02-05T05:10:51.814Z,100589.16
2023-02-05T05:12:56.714Z,100583.69
2023-02-05T05:15:01.602Z,100577.63
2023-02-05T05:17:06.504Z,100565.25
2023-02-05T05:19:11.364Z,100565.25
2023-02-05T05:21:16.457Z,100579.94
2023-02-05T05:23:21.556Z,100585.81
2023-02-05T05:25:29.662Z,100592.59
2023-02-05T05:27:34.538Z,100589.44
2023-02-05T05:29:40.843Z,100595.22
2023-02-05T05:31:46.434Z,100601.72
2023-02-05T05:33:52.837Z,100612.31
2023-02-05T05:35:57.857Z,100604.97
2023-02-05T05:38:04.029Z,100608.09
2023-02-05T05:40:22.893Z,100608.09
2023-02-05T05:42:43.148Z,100603.00
2023-02-05T05:44:50.492Z,100590.97
2023-02-05T05:46:55.788Z,100599.03
2023-02-05T05:49:02.986Z,100593.25
2023-02-05T05:51:08.744Z,100599.16
2023-02-05T05:53:14.190Z,100579.66
2023-02-05T05:55:19.215Z,100577.38
2023-02-05T05:57:24.462Z,100583.88
2023-02-05T05:59:31.961Z,100582.19
2023-02-05T06:01:36.817Z,100591.19
2023-02-05T06:03:42.635Z,100607.59
2023-02-05T06:05:47.524Z,100602.00
2023-02-05T06:07:52.704Z,100590.53
2023-02-05T06:09:57.599Z,100587.94
2023-02-05T06:12:02.754Z,100590.41
2023-02-05T06:14:08.575Z,100579.56
2023-02-05T06:16:16.709Z,100577.09
2023-02-05T06:18:23.709Z,100583.88
2023-02-05T06:20:29.073Z,100590.69
2023-02-05T06:22:34.159Z,100584.44
2023-02-05T06:24:39.004Z,100585.41
2023-02-05T06:26:44.268Z,100580.59
2023-02-05T06:28:49.530Z,100584.84
2023-02-05T06:30:55.378Z,100583.13
2023-02-05T06:33:02.856Z,100598.28
2023-02-05T06:35:09.350Z,100595.03
2023-02-05T06:37:14.233Z,100585.44
2023-02-05T06:39:19.084Z,100581.97
2023-02-05T06:41:24.208Z,100583.69
2023-02-05T06:43:29.095Z,100582.38
2023-02-05T06:45:37.663Z,100582.25
2023-02-05T06:47:42.680Z,100580.66
2023-02-05T06:49:50.285Z,100580.41
2023-02-05T06:51:55.664Z,100578.56
2023-02-05T06:54:02.194Z,100575.31
2023-02-05T06:56:08.521Z,100568.94
2023-02-05T06:58:13.430Z,100560.84
2023-02-05T07:00:19.974Z,100545.88
2023-02-05T07:02:24.840Z,100545.22
2023-02-05T07:04:31.407Z,100549.41
2023-02-05T07:06:38.938Z,100536.19
2023-02-05T07:08:44.406Z,100532.34
2023-02-05T07:10:49.228Z,100542.19
2023-02-05T07:12:54.164Z,100539.72
2023-02-05T07:14:59.121Z,100531.00
2023-02-05T07:17:04.056Z,100527.06
2023-02-05T07:19:12.810Z,100526.47
2023-02-05T07:21:19.496Z,100536.69
2023-02-05T07:23:26.942Z,100536.03
2023-02-05T07:25:36.467Z,100539.44
2023-02-05T07:27:41.604Z,100540.41
2023-02-05T07:29:46.513Z,100538.00
2023-02-05T07:31:52.743Z,100537.34
2023-02-05T07:33:57.977Z,100538.00
2023-02-05T07:36:05.928Z,100549.66
2023-02-05T07:38:11.666Z,100542.28
2023-02-05T07:40:19.373Z,100536.72
2023-02-05T07:42:24.827Z,100533.53
2023-02-05T07:44:35.075Z,100531.97
2023-02-05T07:46:40.230Z,100518.88
2023-02-05T07:48:45.413Z,100517.44
2023-02-05T07:50:53.641Z,100510.88
2023-02-05T07:52:58.467Z,100513.63
2023-02-05T07:55:04.002Z,100519.50
2023-02-05T07:57:11.803Z,100519.50
2023-02-05T07:59:16.670Z,100511.38
2023-02-05T08:01:21.935Z,100514.75
2023-02-05T08:03:27.363Z,100503.94
2023-02-05T08:05:32.542Z,100493.09
2023-02-05T08:07:37.593Z,100498.41
2023-02-05T08:09:43.145Z,100493.34
2023-02-05T08:11:49.102Z,100492.56
2023-02-05T08:13:58.170Z,100483.53
2023-02-05T08:16:07.293Z,100475.28
2023-02-05T08:18:12.605Z,100478.78
2023-02-05T08:20:17.823Z,100475.53
2023-02-05T08:22:22.841Z,100479.69
2023-02-05T08:24:27.708Z,100483.00
2023-02-05T08:26:32.541Z,100482.31
2023-02-05T08:28:37.745Z,100472.25
2023-02-05T08:30:45.182Z,100474.91
2023-02-05T08:32:51.302Z,100482.31
2023-02-05T08:34:56.373Z,100480.00
2023-02-05T08:37:01.224Z,100480.84
2023-02-05T08:39:07.723Z,100484.34
2023-02-05T08:41:15.170Z,100480.41
2023-02-05T08:43:20.854Z,100482.63
2023-02-05T08:45:25.928Z,100482.75
2023-02-05T08:47:33.345Z,100485.28
2023-02-05T08:49:38.499Z,100486.91
2023-02-05T08:51:43.734Z,100477.09
2023-02-05T08:53:49.889Z,100479.75
2023-02-05T08:55:58.353Z,100472.19
2023-02-05T08:58:03.272Z,100477.47
2023-02-05T09:00:10.545Z,100470.91
2023-02-05T09:02:18.216Z,100469.34
2023-02-05T09:04:25.978Z,100470.22
2023-02-05T09:06:31.391Z,100473.47
2023-02-05T09:08:36.324Z,100476.88
2023-02-05T09:10:41.325Z,100465.03
2023-02-05T09:12:46.312Z,100465.94
2023-02-05T09:14:51.463Z,100462.72
2023-02-05T09:16:56.445Z,100470.13
2023-02-05T09:19:02.910Z,100468.41
2023-02-05T09:21:13.988Z,100471.59
2023-02-05T09:23:22.076Z,100471.59
2023-02-05T09:25:29.645Z,100475.75
2023-02-05T09:27:35.699Z,100474.84
2023-02-05T09:29:41.178Z,100467.34
2023-02-05T09:31:46.237Z,100468.31
2023-02-05T09:33:51.226Z,100464.22
2023-02-05T09:35:56.789Z,100459.09
2023-02-05T09:38:05.667Z,100464.91
2023-02-05T09:40:21.462Z,100463.69
2023-02-05T09:42:38.996Z,100459.50
2023-02-05T09:44:58.965Z,100458.56
2023-02-05T09:47:10.284Z,100453.84
2023-02-05T09:49:20.888Z,100442.53
2023-02-05T09:51:33.685Z,100440.34
2023-02-05T09:53:47.304Z,100444.44
2023-02-05T09:55:52.908Z,100454.16
2023-02-05T09:58:03.541Z,100449.94
2023-02-05T10:00:22.444Z,100453.53
2023-02-05T10:02:32.648Z,100446.16
2023-02-05T10:04:37.513Z,100439.59
2023-02-05T10:07:07.981Z,100444.44
2023-02-05T10:09:40.959Z,100449.47
2023-02-05T10:11:54.308Z,100445.94
2023-02-05T10:14:17.350Z,100449.41
2023-02-05T10:16:42.542Z,100436.69
2023-02-05T10:19:04.136Z,100439.44
2023-02-05T10:21:24.994Z,100436.84
2023-02-05T10:23:54.826Z,100427.75
2023-02-05T10:26:15.489Z,100428.13
2023-02-05T10:28:47.246Z,100430.47
2023-02-05T10:31:01.930Z,100431.13
2023-02-05T10:33:19.736Z,100434.28
2023-02-05T10:35:33.176Z,100432.81
2023-02-05T10:37:46.398Z,100429.34
2023-02-05T10:39:52.269Z,100433.19
2023-02-05T10:42:04.863Z,100422.50
2023-02-05T10:44:17.523Z,100423.50
2023-02-05T10:46:23.006Z,100419.41
2023-02-05T10:48:44.790Z,100418.16
2023-02-05T10:51:01.820Z,100424.19
2023-02-05T10:53:06.529Z,100415.28
2023-02-05T10:55:14.749Z,100413.78
2023-02-05T10:57:25.862Z,100410.59
2023-02-05T10:59:35.808Z,100405.75
2023-02-05T11:01:41.700Z,100397.69
2023-02-05T11:04:00.766Z,100397.91
2023-02-05T11:06:11.447Z,100401.25
2023-02-05T11:08:36.290Z,100394.00
2023-02-05T11:10:41.385Z,100394.16
2023-02-05T11:12:52.962Z,100382.84
2023-02-05T11:15:02.177Z,100383.94
2023-02-05T11:17:21.801Z,100383.94
2023-02-05T11:19:30.681Z,100380.78
2023-02-05T11:21:55.009Z,100378.31
2023-02-05T11:24:01.080Z,100375.31
2023-02-05T11:26:20.144Z,100372.97
2023-02-05T11:28:31.920Z,100374.19
2023-02-05T11:30:54.310Z,100374.72
2023-02-05T11:33:00.389Z,100372.63
2023-02-05T11:35:25.556Z,100373.34
2023-02-05T11:37:30.511Z,100367.41
2023-02-05T11:39:40.733Z,100361.88
2023-02-05T11:41:52.230Z,100357.91
2023-02-05T11:44:03.164Z,100358.47
2023-02-05T11:46:13.311Z,100356.41
2023-02-05T11:48:34.477Z,100359.53
2023-02-05T11:50:39.394Z,100352.28
2023-02-05T11:52:44.405Z,100363.09
2023-02-05T11:54:50.818Z,100359.63
2023-02-05T11:57:10.391Z,100362.84
2023-02-05T11:59:25.496Z,100356.06
2023-02-05T12:01:34.425Z,100359.53
2023-02-05T12:03:39.904Z,100352.22
2023-02-05T12:05:53.592Z,100356.41
2023-02-05T12:08:08.877Z,100354.16
2023-02-05T12:10:26.533Z,100352.19
2023-02-05T12:12:43.218Z,100354.41
2023-02-05T12:14:58.908Z,100347.91
2023-02-05T12:17:24.850Z,100344.69
2023-02-05T12:19:39.747Z,100350.72
2023-02-05T12:21:52.952Z,100349.56
2023-02-05T12:24:19.697Z,100351.47
2023-02-05T12:26:34.043Z,100356.41
2023-02-05T12:28:51.080Z,100364.63
2023-02-05T12:31:17.733Z,100361.47
2023-02-05T12:33:54.103Z,100362.25
2023-02-05T12:36:13.227Z,100361.28
2023-02-05T12:38:32.563Z,100362.13
2023-02-05T12:40:51.453Z,100362.47
2023-02-05T12:43:05.217Z,100363.63
2023-02-05T12:45:31.259Z,100361.38
2023-02-05T12:48:04.502Z,100358.09
2023-02-05T12:50:39.804Z,100359.88
2023-02-05T12:53:15.672Z,100357.41
2023-02-05T12:55:36.751Z,100358.25
2023-02-05T12:57:46.979Z,100363.34
2023-02-05T12:59:56.618Z,100359.28
2023-02-05T13:02:09.066Z,100359.88
2023-02-05T13:04:28.572Z,100364.06
2023-02-05T13:06:39.540Z,100359.78
2023-02-05T13:08:50.593Z,100356.91
2023-02-05T13:11:01.394Z,100352.41
2023-02-05T13:13:14.080Z,100357.56
2023-02-05T13:15:24.966Z,100355.72
2023-02-05T13:17:36.746Z,100357.50
2023-02-05T13:19:49.091Z,100354.81
2023-02-05T13:22:10.409Z,100354.53
2023-02-05T13:24:41.965Z,100348.81
2023-02-05T13:27:02.568Z,100346.75
2023-02-05T13:29:12.044Z,100348.34
2023-02-05T13:31:31.003Z,100347.03
2023-02-05T13:33:37.575Z,100347.09
2023-02-05T13:35:54.710Z,100351.75
2023-02-05T13:38:37.451Z,100345.00
2023-02-05T13:41:19.557Z,100346.56
2023-02-05T13:44:07.727Z,100354.84
2023-02-05T13:46:43.946Z,100364.63
2023-02-05T13:49:41.700Z,100358.00
2023-02-05T13:52:24.375Z,100362.81
2023-02-05T13:55:07.362Z,100354.75
2023-02-05T13:57:50.078Z,100356.06
2023-02-05T13:59:57.037Z,100362.53
2023-02-05T14:02:04.334Z,100356.25
2023-02-05T14:04:20.207Z,100365.28
2023-02-05T14:06:32.984Z,100366.22
2023-02-05T14:08:42.425Z,100372.63
2023-02-05T14:10:49.547Z,100375.41
2023-02-05T14:12:54.949Z,100377.19
2023-02-05T14:15:39.886Z,100377.38
2023-02-05T14:17:58.709Z,100369.59
2023-02-05T14:20:06.127Z,100370.38
2023-02-05T14:22:15.810Z,100373.53
2023-02-05T14:24:52.245Z,100379.28
2023-02-05T14:27:00.778Z,100374.28
2023-02-05T14:29:05.770Z,100377.66
2023-02-05T14:31:11.695Z,100376.78
2023-02-05T14:33:39.625Z,100379.16
2023-02-05T14:35:48.164Z,100388.63
2023-02-05T14:37:53.941Z,100389.94
2023-02-05T14:40:02.333Z,100388.53
2023-02-05T14:42:10.324Z,100403.66
2023-02-05T14:44:27.334Z,100408.72
2023-02-05T14:46:36.515Z,100412.00
2023-02-05T14:48:48.993Z,100406.19
2023-02-05T14:51:07.019Z,100412.28
2023-02-05T14:53:29.677Z,100416.78
2023-02-05T14:55:43.978Z,100423.72
2023-02-05T14:57:53.284Z,100423.47
2023-02-05T15:00:02.928Z,100428.91
2023-02-05T15:03:02.520Z,100435.53
2023-02-05T15:05:08.915Z,100435.38
2023-02-05T15:07:18.529Z,100439.38
2023-02-05T15:09:34.443Z,100440.84
2023-02-05T15:12:17.197Z,100444.03
2023-02-05T15:14:44.765Z,100444.59
2023-02-05T15:16:50.125Z,100448.88
2023-02-05T15:18:56.728Z,100440.38
2023-02-05T15:21:02.448Z,100445.09
2023-02-05T15:23:37.908Z,100442.66
2023-02-05T15:25:46.659Z,100447.00
2023-02-05T15:28:00.097Z,100454.91
2023-02-05T15:30:10.910Z,100453.13
2023-02-05T15:32:25.609Z,100463.16
2023-02-05T15:34:38.022Z,100466.34
2023-02-05T15:36:49.914Z,100457.88
2023-02-05T15:39:06.149Z,100451.84
2023-02-05T15:41:13.968Z,100460.91
2023-02-05T15:43:25.052Z,100460.72
2023-02-05T15:45:33.823Z,100456.50
2023-02-05T15:47:39.057Z,100462.22
2023-02-05T15:49:49.137Z,100463.06
2023-02-05T15:51:54.367Z,100465.69
2023-02-05T15:54:01.475Z,100469.81
2023-02-05T15:56:14.377Z,100477.09
2023-02-05T15:58:27.048Z,100479.75
2023-02-05T16:00:34.973Z,100490.41
2023-02-05T16:02:43.656Z,100487.03
2023-02-05T16:04:56.905Z,100495.25
2023-02-05T16:07:02.333Z,100497.69
2023-02-05T16:09:20.176Z,100505.94
2023-02-05T16:11:33.739Z,100515.97
2023-02-05T16:13:41.324Z,100510.91
2023-02-05T16:15:55.413Z,100509.16
2023-02-05T16:18:02.316Z,100514.19
2023-02-05T16:20:26.752Z,100523.25
2023-02-05T16:22:41.077Z,100518.41
2023-02-05T16:24:49.252Z,100515.13
2023-02-05T16:27:01.011Z,100517.56
2023-02-05T16:29:24.764Z,100510.06
2023-02-05T16:31:32.420Z,100508.38
2023-02-05T16:33:43.405Z,100503.28
2023-02-05T16:35:51.310Z,100500.84
2023-02-05T16:37:56.459Z,100510.56
2023-02-05T16:40:06.064Z,100525.41
2023-02-05T16:42:29.984Z,100521.56
2023-02-05T16:44:41.677Z,100542.00
2023-02-05T16:46:46.676Z,100541.19
2023-02-05T16:48:53.637Z,100541.75
2023-02-05T16:50:59.904Z,100538.16
2023-02-05T16:53:05.718Z,100546.38
2023-02-05T16:55:45.645Z,100546.38
2023-02-05T16:57:50.657Z,100549.66
2023-02-05T16:59:59.873Z,100567.81
2023-02-05T17:02:05.961Z,100571.13
2023-02-05T17:04:26.945Z,100576.06
2023-02-05T17:06:37.504Z,100574.44
2023-02-05T17:08:45.443Z,100577.75
2023-02-05T17:10:56.400Z,100574.47
2023-02-05T17:13:05.440Z,100579.44
2023-02-05T17:15:30.774Z,100577.03
2023-02-05T17:17:35.827Z,100578.13
2023-02-05T17:19:41.014Z,100572.56
2023-02-05T17:21:45.903Z,100574.09
2023-02-05T17:23:52.177Z,100573.16
2023-02-05T17:26:00.039Z,100584.56
2023-02-05T17:28:05.748Z,100593.13
2023-02-05T17:30:20.666Z,100601.00
2023-02-05T17:32:27.018Z,100596.72
2023-02-05T17:34:32.345Z,100598.25
2023-02-05T17:36:37.242Z,100603.59
2023-02-05T17:38:42.147Z,100603.16
2023-02-05T17:40:48.140Z,100591.16
2023-02-05T17:42:55.591Z,100605.94
2023-02-05T17:45:00.743Z,100605.16
2023-02-05T17:47:07.552Z,100601.75
2023-02-05T17:49:13.669Z,100610.34
2023-02-05T17:51:23.359Z,100615.09
2023-02-05T17:53:29.068Z,100609.75
2023-02-05T17:55:34.024Z,100613.63
2023-02-05T17:57:39.606Z,100611.88
2023-02-05T17:59:47.505Z,100617.63
2023-02-05T18:01:54.664Z,100625.84
2023-02-05T18:03:59.820Z,100629.19
2023-02-05T18:06:04.963Z,100633.41
2023-02-05T18:08:10.167Z,100635.13
2023-02-05T18:10:18.867Z,100634.19
2023-02-05T18:12:23.752Z,100641.81
2023-02-05T18:14:29.057Z,100640.19
2023-02-05T18:16:37.846Z,100634.44
2023-02-05T18:18:43.067Z,100645.28
2023-02-05T18:20:48.368Z,100644.19
2023-02-05T18:22:54.179Z,100643.69
2023-02-05T18:24:59.244Z,100652.97
2023-02-05T18:27:04.438Z,100646.31
2023-02-05T18:29:09.353Z,100653.69
2023-02-05T18:31:14.876Z,100646.94
2023-02-05T18:33:22.729Z,100650.25
2023-02-05T18:35:28.231Z,100659.38
2023-02-05T18:37:33.223Z,100669.28
2023-02-05T18:39:38.113Z,100661.22
2023-02-05T18:41:43.762Z,100656.63
2023-02-05T18:43:49.412Z,100651.66
2023-02-05T18:45:55.381Z,100657.28
2023-02-05T18:48:01.326Z,100662.00
2023-02-05T18:50:11.463Z,100674.50
2023-02-05T18:52:18.430Z,100672.88
2023-02-05T18:54:23.670Z,100662.88
2023-02-05T18:56:31.128Z,100663.88
2023-02-05T18:58:38.076Z,100668.00
2023-02-05T19:00:42.960Z,100675.72
2023-02-05T19:02:49.023Z,100677.25
2023-02-05T19:04:56.342Z,100684.94
2023-02-05T19:07:04.000Z,100691.38
2023-02-05T19:09:08.881Z,100693.84
2023-02-05T19:11:16.947Z,100694.63
2023-02-05T19:13:22.350Z,100693.03
2023-02-05T19:15:28.326Z,100698.16
2023-02-05T19:17:33.949Z,100707.81
2023-02-05T19:19:40.677Z,100701.88
2023-02-05T19:21:47.724Z,100704.28
2023-02-05T19:23:57.508Z,100698.56
2023-02-05T19:26:07.098Z,100701.81
2023-02-05T19:28:11.999Z,100697.63
2023-02-05T19:30:17.458Z,100688.53
2023-02-05T19:32:23.582Z,100694.97
2023-02-05T19:34:28.975Z,100697.63
2023-02-05T19:36:35.831Z,100694.25
2023-02-05T19:38:43.328Z,100690.06
2023-02-05T19:40:50.763Z,100696.66
2023-02-05T19:42:56.925Z,100701.75
2023-02-05T19:45:02.468Z,100703.09
2023-02-05T19:47:08.547Z,100695.50
2023-02-05T19:49:16.781Z,100700.38
2023-02-05T19:51:23.844Z,100703.63
2023-02-05T19:53:28.909Z,100705.25
2023-02-05T19:55:36.189Z,100710.06
2023-02-05T19:57:45.344Z,100720.06
2023-02-05T19:59:50.979Z,100714.00
2023-02-05T20:01:56.564Z,100714.75
2023-02-05T20:04:08.688Z,100712.84
2023-02-05T20:06:17.374Z,100720.16
2023-02-05T20:08:22.583Z,100721.75
2023-02-05T20:10:27.454Z,100724.28
2023-02-05T20:12:32.339Z,100722.59
2023-02-05T20:14:40.161Z,100718.53
2023-02-05T20:16:46.369Z,100725.25
2023-02-05T20:18:56.507Z,100724.28
2023-02-05T20:21:01.501Z,100730.28
2023-02-05T20:23:06.469Z,100724.28
2023-02-05T20:25:11.914Z,100722.44
2023-02-05T20:27:17.100Z,100729.91
2023-02-05T20:29:34.554Z,100729.00
2023-02-05T20:31:44.299Z,100725.59
2023-02-05T20:33:50.262Z,100733.81
2023-02-05T20:35:55.965Z,100731.34
2023-02-05T20:38:01.193Z,100733.81
2023-02-05T20:40:06.733Z,100738.94
2023-02-05T20:42:13.557Z,100748.84
2023-02-05T20:44:19.149Z,100756.41
2023-02-05T20:46:25.904Z,100760.53
2023-02-05T20:48:34.598Z,100764.78
2023-02-05T20:50:39.699Z,100773.94
2023-02-05T20:52:45.231Z,100778.91
2023-02-05T20:54:52.750Z,100774.56
2023-02-05T20:56:59.434Z,100786.13
2023-02-05T20:59:07.153Z,100775.38
2023-02-05T21:01:15.573Z,100777.00
2023-02-05T21:03:20.584Z,100780.94
2023-02-05T21:05:28.367Z,100786.09
2023-02-05T21:07:35.809Z,100786.28
2023-02-05T21:09:41.056Z,100790.50
2023-02-05T21:11:46.888Z,100792.22
2023-02-05T21:13:54.173Z,100787.97
2023-02-05T21:16:02.676Z,100780.47
2023-02-05T21:18:08.669Z,100789.47
2023-02-05T21:20:14.485Z,100795.34
2023-02-05T21:22:22.227Z,100796.19
2023-02-05T21:24:27.504Z,100790.28
2023-02-05T21:26:35.973Z,100803.47
2023-02-05T21:28:41.260Z,100798.75
2023-02-05T21:30:51.545Z,100796.91
2023-02-05T21:32:57.065Z,100805.41
2023-02-05T21:35:03.352Z,100800.19
2023-02-05T21:37:08.590Z,100809.13
2023-02-05T21:39:16.755Z,100813.13
2023-02-05T21:41:22.483Z,100812.84
2023-02-05T21:43:28.794Z,100812.19
2023-02-05T21:45:36.800Z,100817.81
2023-02-05T21:47:42.538Z,100821.78
2023-02-05T21:49:48.336Z,100825.78
2023-02-05T21:51:54.061Z,100826.47
2023-02-05T21:54:01.606Z,100834.97
2023-02-05T21:56:15.610Z,100832.28
2023-02-05T21:58:20.632Z,100829.50
2023-02-05T22:00:26.200Z,100829.22
2023-02-05T22:02:31.448Z,100836.56
2023-02-05T22:04:36.888Z,100834.91
2023-02-05T22:06:43.008Z,100843.00
2023-02-05T22:08:50.859Z,100846.09
2023-02-05T22:10:55.787Z,100849.38
2023-02-05T22:13:03.727Z,100846.09
2023-02-05T22:15:09.982Z,100848.72
2023-02-05T22:17:15.396Z,100851.22
2023-02-05T22:19:20.939Z,100857.03
2023-02-05T22:21:29.063Z,100852.19
2023-02-05T22:23:34.533Z,100865.34
2023-02-05T22:25:40.472Z,100871.31
2023-02-05T22:27:46.170Z,100868.03
2023-02-05T22:29:56.095Z,100874.72
2023-02-05T22:32:01.040Z,100870.41
2023-02-05T22:34:06.895Z,100876.25
2023-02-05T22:36:15.421Z,100872.88
2023-02-05T22:38:20.277Z,100893.50
2023-02-05T22:40:25.363Z,100881.66
2023-02-05T22:42:30.378Z,100876.34
2023-02-05T22:44:35.525Z,100882.69
2023-02-05T22:46:46.013Z,100886.06
2023-02-05T22:48:53.656Z,100880.22
2023-02-05T22:50:59.368Z,100881.78
2023-02-05T22:53:04.208Z,100873.41
2023-02-05T22:55:09.972Z,100891.72
2023-02-05T22:57:15.526Z,100895.69
2023-02-05T22:59:20.392Z,100889.88
2023-02-05T23:01:28.309Z,100894.69
2023-02-05T23:03:35.746Z,100894.97
2023-02-05T23:05:40.667Z,100890.09
2023-02-05T23:07:51.722Z,100890.94
2023-02-05T23:09:56.580Z,100901.63
2023-02-05T23:12:03.244Z,100905.16
2023-02-05T23:14:10.224Z,100901.75
2023-02-05T23:16:18.101Z,100888.47
2023-02-05T23:18:23.105Z,100899.81
2023-02-05T23:20:30.730Z,100896.38
2023-02-05T23:22:36.104Z,100889.72
2023-02-05T23:24:41.083Z,100889.72
2023-02-05T23:26:49.201Z,100886.19
2023-02-05T23:28:56.092Z,100888.66
2023-02-05T23:31:01.057Z,100881.09
2023-02-05T23:33:06.937Z,100886.06
2023-02-05T23:35:11.844Z,100888.53
2023-02-05T23:37:19.736Z,100888.53
2023-02-05T23:39:24.871Z,100885.06
2023-02-05T23:41:40.387Z,100880.75
2023-02-05T23:43:45.317Z,100880.81
2023-02-05T23:45:50.749Z,100890.72
2023-02-05T23:47:56.401Z,100892.31
2023-02-05T23:50:01.329Z,100893.00
2023-02-05T23:52:07.866Z,100895.44
2023-02-05T23:54:15.669Z,100887.06
2023-02-05T23:56:20.988Z,100878.13
2023-02-05T23:58:28.325Z,100867.34
